createdAt,value
2017-01-31T00:00:14.796Z,1005.7
2017-01-31T00:01:14.764Z,1005.7
2017-01-31T00:02:14.747Z,1005.72
2017-01-31T00:03:14.725Z,1005.71
2017-01-31T00:04:14.697Z,1005.69
2017-01-31T00:05:14.665Z,1005.74
2017-01-31T00:06:14.717Z,1005.74
2017-01-31T00:07:14.617Z,1005.74
2017-01-31T00:08:14.589Z,1005.82
2017-01-31T00:09:14.572Z,1005.81
2017-01-31T00:10:14.543Z,1005.82
2017-01-31T00:11:14.515Z,1005.82
2017-01-31T00:12:14.490Z,1005.81
2017-01-31T00:13:14.468Z,1005.82
2017-01-31T00:14:14.452Z,1005.8
2017-01-31T00:15:14.421Z,1005.79
2017-01-31T00:16:14.392Z,1005.83
2017-01-31T00:17:14.366Z,1005.81
2017-01-31T00:18:14.347Z,1005.77
2017-01-31T00:19:14.323Z,1005.8
2017-01-31T00:20:14.294Z,1005.82
2017-01-31T00:21:14.269Z,1005.78
2017-01-31T00:22:14.244Z,1005.85
2017-01-31T00:23:14.223Z,1005.84
2017-01-31T00:24:14.201Z,1005.86
2017-01-31T00:25:14.172Z,1005.85
2017-01-31T00:26:14.152Z,1005.86
2017-01-31T00:27:14.133Z,1005.82
2017-01-31T00:28:14.104Z,1005.85
2017-01-31T00:29:14.074Z,1005.87
2017-01-31T00:30:14.050Z,1005.88
2017-01-31T00:31:14.025Z,1005.9
2017-01-31T00:32:14.000Z,1005.94
2017-01-31T00:33:13.973Z,1005.93
2017-01-31T00:34:13.949Z,1005.89
2017-01-31T00:35:13.929Z,1005.89
2017-01-31T00:36:13.906Z,1005.91
2017-01-31T00:37:13.873Z,1005.91
2017-01-31T00:38:13.851Z,1005.89
2017-01-31T00:39:13.828Z,1005.88
2017-01-31T00:40:13.802Z,1005.93
2017-01-31T00:41:13.774Z,1005.88
2017-01-31T00:42:13.753Z,1005.91
2017-01-31T00:43:13.725Z,1005.88
2017-01-31T00:44:13.702Z,1005.92
2017-01-31T00:45:13.685Z,1005.93
2017-01-31T00:46:13.652Z,1005.9
2017-01-31T00:47:13.629Z,1005.88
2017-01-31T00:48:13.600Z,1005.91
2017-01-31T00:49:13.578Z,1005.9
2017-01-31T00:50:13.551Z,1005.9
2017-01-31T00:51:13.529Z,1005.94
2017-01-31T00:52:13.501Z,1005.92
2017-01-31T00:53:13.481Z,1005.92
2017-01-31T00:54:13.455Z,1005.91
2017-01-31T00:55:13.434Z,1005.9
2017-01-31T00:56:13.404Z,1005.92
2017-01-31T00:57:13.381Z,1005.96
2017-01-31T00:58:13.365Z,1005.96
2017-01-31T00:59:13.331Z,1005.96
2017-01-31T01:00:13.312Z,1005.93
2017-01-31T01:01:13.281Z,1005.9
2017-01-31T01:02:13.258Z,1005.91
2017-01-31T01:03:13.231Z,1005.96
2017-01-31T01:04:13.212Z,1005.92
2017-01-31T01:05:13.213Z,1005.91
2017-01-31T01:06:13.162Z,1005.94
2017-01-31T01:07:13.138Z,1005.94
2017-01-31T01:08:13.109Z,1005.92
2017-01-31T01:09:13.084Z,1005.89
2017-01-31T01:10:13.058Z,1005.95
2017-01-31T01:11:13.137Z,1005.92
2017-01-31T01:12:13.017Z,1005.91
2017-01-31T01:13:13.035Z,1005.93
2017-01-31T01:14:12.965Z,1005.91
2017-01-31T01:15:13.037Z,1005.9
2017-01-31T01:16:12.915Z,1005.86
2017-01-31T01:17:13.046Z,1005.91
2017-01-31T01:18:12.860Z,1005.87
2017-01-31T01:19:12.839Z,1005.86
2017-01-31T01:20:12.809Z,1005.89
2017-01-31T01:21:12.787Z,1005.88
2017-01-31T01:22:12.763Z,1005.83
2017-01-31T01:23:12.788Z,1005.91
2017-01-31T01:24:12.720Z,1005.93
2017-01-31T01:25:12.691Z,1005.88
2017-01-31T01:26:12.663Z,1005.94
2017-01-31T01:27:12.641Z,1005.92
2017-01-31T01:28:12.614Z,1005.93
2017-01-31T01:29:12.600Z,1005.95
2017-01-31T01:30:12.565Z,1005.96
2017-01-31T01:31:12.544Z,1005.98
2017-01-31T01:32:12.518Z,1006
2017-01-31T01:33:12.625Z,1006.01
2017-01-31T01:34:12.467Z,1006.01
2017-01-31T01:35:12.446Z,1006.03
2017-01-31T01:36:12.419Z,1006.05
2017-01-31T01:37:12.395Z,1006.06
2017-01-31T01:38:12.370Z,1006.09
2017-01-31T01:39:12.344Z,1006.09
2017-01-31T01:40:12.317Z,1006.07
2017-01-31T01:41:12.292Z,1006.09
2017-01-31T01:42:12.271Z,1006.13
2017-01-31T01:43:12.250Z,1006.11
2017-01-31T01:44:12.219Z,1006.16
2017-01-31T01:45:12.196Z,1006.19
2017-01-31T01:46:12.171Z,1006.14
2017-01-31T01:47:12.149Z,1006.2
2017-01-31T01:48:12.128Z,1006.19
2017-01-31T01:49:12.098Z,1006.18
2017-01-31T01:50:12.071Z,1006.18
2017-01-31T01:51:12.045Z,1006.18
2017-01-31T01:52:12.022Z,1006.22
2017-01-31T01:53:11.999Z,1006.18
2017-01-31T01:54:11.977Z,1006.18
2017-01-31T01:55:11.946Z,1006.23
2017-01-31T01:56:11.926Z,1006.21
2017-01-31T01:57:11.898Z,1006.22
2017-01-31T01:58:11.884Z,1006.2
2017-01-31T01:59:11.849Z,1006.22
2017-01-31T02:00:11.823Z,1006.23
2017-01-31T02:01:11.802Z,1006.2
2017-01-31T02:02:11.779Z,1006.21
2017-01-31T02:03:11.752Z,1006.22
2017-01-31T02:04:11.730Z,1006.21
2017-01-31T02:05:11.705Z,1006.2
2017-01-31T02:06:11.679Z,1006.21
2017-01-31T02:07:11.663Z,1006.2
2017-01-31T02:08:11.625Z,1006.28
2017-01-31T02:09:11.601Z,1006.22
2017-01-31T02:10:11.579Z,1006.25
2017-01-31T02:11:11.556Z,1006.26
2017-01-31T02:12:11.529Z,1006.29
2017-01-31T02:13:11.506Z,1006.27
2017-01-31T02:14:11.484Z,1006.24
2017-01-31T02:15:11.451Z,1006.28
2017-01-31T02:16:11.437Z,1006.25
2017-01-31T02:17:11.407Z,1006.28
2017-01-31T02:18:11.383Z,1006.32
2017-01-31T02:19:11.355Z,1006.31
2017-01-31T02:20:11.330Z,1006.27
2017-01-31T02:21:11.312Z,1006.34
2017-01-31T02:22:11.284Z,1006.36
2017-01-31T02:23:11.254Z,1006.37
2017-01-31T02:24:11.232Z,1006.35
2017-01-31T02:25:11.209Z,1006.43
2017-01-31T02:26:11.183Z,1006.41
2017-01-31T02:27:11.158Z,1006.4
2017-01-31T02:28:11.137Z,1006.4
2017-01-31T02:29:11.106Z,1006.46
2017-01-31T02:30:11.084Z,1006.47
2017-01-31T02:31:11.062Z,1006.45
2017-01-31T02:32:11.086Z,1006.44
2017-01-31T02:33:11.015Z,1006.46
2017-01-31T02:34:11.035Z,1006.47
2017-01-31T02:35:10.965Z,1006.47
2017-01-31T02:36:10.945Z,1006.41
2017-01-31T02:37:10.912Z,1006.42
2017-01-31T02:38:10.944Z,1006.45
2017-01-31T02:39:10.861Z,1006.46
2017-01-31T02:40:10.841Z,1006.44
2017-01-31T02:41:10.811Z,1006.45
2017-01-31T02:42:10.890Z,1006.49
2017-01-31T02:43:10.768Z,1006.46
2017-01-31T02:44:10.739Z,1006.48
2017-01-31T02:45:10.721Z,1006.45
2017-01-31T02:46:10.688Z,1006.47
2017-01-31T02:47:10.670Z,1006.47
2017-01-31T02:48:10.672Z,1006.52
2017-01-31T02:49:10.611Z,1006.51
2017-01-31T02:50:10.597Z,1006.49
2017-01-31T02:51:10.563Z,1006.52
2017-01-31T02:52:10.544Z,1006.49
2017-01-31T02:53:10.515Z,1006.48
2017-01-31T02:54:10.503Z,1006.5
2017-01-31T02:55:10.466Z,1006.45
2017-01-31T02:56:10.443Z,1006.46
2017-01-31T02:57:10.418Z,1006.47
2017-01-31T02:58:10.396Z,1006.51
2017-01-31T02:59:10.368Z,1006.49
2017-01-31T03:00:10.348Z,1006.47
2017-01-31T03:01:10.322Z,1006.47
2017-01-31T03:02:10.294Z,1006.47
2017-01-31T03:03:10.267Z,1006.47
2017-01-31T03:04:10.249Z,1006.47
2017-01-31T03:05:10.218Z,1006.51
2017-01-31T03:06:10.198Z,1006.45
2017-01-31T03:07:10.168Z,1006.49
2017-01-31T03:08:10.144Z,1006.52
2017-01-31T03:09:10.122Z,1006.47
2017-01-31T03:10:10.102Z,1006.49
2017-01-31T03:11:10.076Z,1006.47
2017-01-31T03:12:10.045Z,1006.46
2017-01-31T03:13:10.023Z,1006.49
2017-01-31T03:14:10.003Z,1006.5
2017-01-31T03:15:09.973Z,1006.51
2017-01-31T03:16:09.943Z,1006.5
2017-01-31T03:17:09.920Z,1006.49
2017-01-31T03:18:09.896Z,1006.47
2017-01-31T03:19:09.875Z,1006.48
2017-01-31T03:20:09.848Z,1006.51
2017-01-31T03:21:09.825Z,1006.49
2017-01-31T03:22:09.798Z,1006.5
2017-01-31T03:23:09.778Z,1006.52
2017-01-31T03:24:09.757Z,1006.48
2017-01-31T03:25:09.732Z,1006.54
2017-01-31T03:26:09.739Z,1006.52
2017-01-31T03:27:09.676Z,1006.52
2017-01-31T03:28:09.655Z,1006.53
2017-01-31T03:29:09.631Z,1006.53
2017-01-31T03:30:09.600Z,1006.55
2017-01-31T03:31:09.576Z,1006.54
2017-01-31T03:32:09.563Z,1006.53
2017-01-31T03:33:09.532Z,1006.55
2017-01-31T03:34:09.502Z,1006.56
2017-01-31T03:35:09.482Z,1006.53
2017-01-31T03:36:09.462Z,1006.62
2017-01-31T03:37:09.430Z,1006.59
2017-01-31T03:38:09.409Z,1006.59
2017-01-31T03:39:09.379Z,1006.6
2017-01-31T03:40:09.354Z,1006.58
2017-01-31T03:41:09.340Z,1006.62
2017-01-31T03:42:09.305Z,1006.64
2017-01-31T03:43:09.290Z,1006.58
2017-01-31T03:44:09.256Z,1006.58
2017-01-31T03:45:09.232Z,1006.59
2017-01-31T03:46:09.204Z,1006.57
2017-01-31T03:47:09.187Z,1006.64
2017-01-31T03:48:09.161Z,1006.63
2017-01-31T03:49:09.138Z,1006.63
2017-01-31T03:50:09.114Z,1006.65
2017-01-31T03:51:09.084Z,1006.7
2017-01-31T03:52:09.061Z,1006.68
2017-01-31T03:53:09.033Z,1006.69
2017-01-31T03:54:09.007Z,1006.7
2017-01-31T03:55:08.992Z,1006.63
2017-01-31T03:56:08.959Z,1006.65
2017-01-31T03:57:08.935Z,1006.64
2017-01-31T03:58:08.915Z,1006.68
2017-01-31T03:59:08.935Z,1006.68
2017-01-31T04:00:08.864Z,1006.67
2017-01-31T04:01:08.840Z,1006.69
2017-01-31T04:02:08.812Z,1006.7
2017-01-31T04:03:08.812Z,1006.68
2017-01-31T04:04:08.766Z,1006.69
2017-01-31T04:05:08.745Z,1006.71
2017-01-31T04:06:08.723Z,1006.69
2017-01-31T04:07:08.732Z,1006.74
2017-01-31T04:08:08.666Z,1006.72
2017-01-31T04:09:08.745Z,1006.74
2017-01-31T04:10:08.613Z,1006.72
2017-01-31T04:11:08.695Z,1006.74
2017-01-31T04:12:08.566Z,1006.75
2017-01-31T04:13:08.544Z,1006.74
2017-01-31T04:14:08.512Z,1006.77
2017-01-31T04:15:08.552Z,1006.75
2017-01-31T04:16:08.464Z,1006.76
2017-01-31T04:17:08.489Z,1006.72
2017-01-31T04:18:08.415Z,1006.77
2017-01-31T04:19:08.396Z,1006.73
2017-01-31T04:20:08.366Z,1006.78
2017-01-31T04:21:08.343Z,1006.76
2017-01-31T04:22:08.316Z,1006.82
2017-01-31T04:23:08.295Z,1006.78
2017-01-31T04:24:08.267Z,1006.76
2017-01-31T04:25:08.247Z,1006.8
2017-01-31T04:26:08.214Z,1006.77
2017-01-31T04:27:08.194Z,1006.81
2017-01-31T04:28:08.163Z,1006.79
2017-01-31T04:29:08.140Z,1006.84
2017-01-31T04:30:08.114Z,1006.81
2017-01-31T04:31:08.092Z,1006.77
2017-01-31T04:32:08.069Z,1006.77
2017-01-31T04:33:08.041Z,1006.78
2017-01-31T04:34:08.017Z,1006.81
2017-01-31T04:35:07.988Z,1006.85
2017-01-31T04:36:07.968Z,1006.84
2017-01-31T04:37:07.944Z,1006.88
2017-01-31T04:38:07.920Z,1006.86
2017-01-31T04:39:07.894Z,1006.86
2017-01-31T04:40:07.866Z,1006.92
2017-01-31T04:41:07.848Z,1006.94
2017-01-31T04:42:07.815Z,1006.94
2017-01-31T04:43:07.794Z,1007
2017-01-31T04:44:07.776Z,1006.97
2017-01-31T04:45:07.746Z,1007
2017-01-31T04:46:07.723Z,1007.01
2017-01-31T04:47:07.694Z,1007
2017-01-31T04:48:07.668Z,1007.04
2017-01-31T04:49:07.644Z,1007.01
2017-01-31T04:50:07.641Z,1007.04
2017-01-31T04:51:07.598Z,1007.07
2017-01-31T04:52:07.572Z,1007.05
2017-01-31T04:53:07.545Z,1007.08
2017-01-31T04:54:07.520Z,1007.09
2017-01-31T04:55:07.500Z,1007.09
2017-01-31T04:56:07.469Z,1007.11
2017-01-31T04:57:07.447Z,1007.09
2017-01-31T04:58:07.417Z,1007.13
2017-01-31T04:59:07.398Z,1007.14
2017-01-31T05:00:07.368Z,1007.12
2017-01-31T05:01:07.348Z,1007.09
2017-01-31T05:02:07.323Z,1007.08
2017-01-31T05:03:07.297Z,1007.1
2017-01-31T05:04:07.274Z,1007.11
2017-01-31T05:05:07.249Z,1007.12
2017-01-31T05:06:07.226Z,1007.16
2017-01-31T05:07:07.198Z,1007.17
2017-01-31T05:08:07.175Z,1007.15
2017-01-31T05:09:07.151Z,1007.23
2017-01-31T05:10:07.125Z,1007.22
2017-01-31T05:11:07.098Z,1007.21
2017-01-31T05:12:07.077Z,1007.24
2017-01-31T05:13:07.051Z,1007.26
2017-01-31T05:14:07.018Z,1007.2
2017-01-31T05:15:07.003Z,1007.24
2017-01-31T05:16:06.974Z,1007.25
2017-01-31T05:17:06.951Z,1007.27
2017-01-31T05:18:06.920Z,1007.31
2017-01-31T05:19:06.896Z,1007.33
2017-01-31T05:20:06.880Z,1007.37
2017-01-31T05:21:06.845Z,1007.34
2017-01-31T05:22:06.822Z,1007.35
2017-01-31T05:23:06.800Z,1007.37
2017-01-31T05:24:06.776Z,1007.39
2017-01-31T05:25:06.750Z,1007.4
2017-01-31T05:26:06.735Z,1007.39
2017-01-31T05:27:06.695Z,1007.34
2017-01-31T05:28:06.701Z,1007.38
2017-01-31T05:29:06.649Z,1007.33
2017-01-31T05:30:06.623Z,1007.35
2017-01-31T05:31:06.602Z,1007.39
2017-01-31T05:32:06.572Z,1007.38
2017-01-31T05:33:06.544Z,1007.35
2017-01-31T05:34:06.625Z,1007.37
2017-01-31T05:35:06.498Z,1007.37
2017-01-31T05:36:06.539Z,1007.37
2017-01-31T05:37:06.446Z,1007.39
2017-01-31T05:38:06.424Z,1007.39
2017-01-31T05:39:06.397Z,1007.42
2017-01-31T05:40:06.370Z,1007.43
2017-01-31T05:41:06.347Z,1007.42
2017-01-31T05:42:06.321Z,1007.41
2017-01-31T05:43:06.299Z,1007.44
2017-01-31T05:44:06.275Z,1007.4
2017-01-31T05:45:06.266Z,1007.45
2017-01-31T05:46:06.224Z,1007.43
2017-01-31T05:47:06.210Z,1007.46
2017-01-31T05:48:06.171Z,1007.42
2017-01-31T05:49:06.152Z,1007.42
2017-01-31T05:50:06.125Z,1007.4
2017-01-31T05:51:06.097Z,1007.38
2017-01-31T05:52:06.076Z,1007.36
2017-01-31T05:53:06.051Z,1007.34
2017-01-31T05:54:06.029Z,1007.38
2017-01-31T05:55:06.002Z,1007.37
2017-01-31T05:56:05.978Z,1007.37
2017-01-31T05:57:05.948Z,1007.4
2017-01-31T05:58:05.925Z,1007.41
2017-01-31T05:59:05.907Z,1007.36
2017-01-31T06:00:05.877Z,1007.35
2017-01-31T06:01:05.857Z,1007.31
2017-01-31T06:02:05.823Z,1007.26
2017-01-31T06:03:05.799Z,1007.28
2017-01-31T06:04:05.774Z,1007.28
2017-01-31T06:05:05.753Z,1007.32
2017-01-31T06:06:05.729Z,1007.39
2017-01-31T06:07:05.700Z,1007.44
2017-01-31T06:08:05.682Z,1007.5
2017-01-31T06:09:05.659Z,1007.5
2017-01-31T06:10:05.628Z,1007.51
2017-01-31T06:11:05.599Z,1007.49
2017-01-31T06:12:05.581Z,1007.52
2017-01-31T06:13:05.548Z,1007.54
2017-01-31T06:14:05.525Z,1007.53
2017-01-31T06:15:05.508Z,1007.56
2017-01-31T06:16:05.476Z,1007.59
2017-01-31T06:17:05.449Z,1007.56
2017-01-31T06:18:05.425Z,1007.57
2017-01-31T06:19:05.400Z,1007.61
2017-01-31T06:20:05.378Z,1007.55
2017-01-31T06:21:05.356Z,1007.54
2017-01-31T06:22:05.334Z,1007.55
2017-01-31T06:23:05.302Z,1007.53
2017-01-31T06:24:05.288Z,1007.6
2017-01-31T06:25:05.253Z,1007.58
2017-01-31T06:26:05.235Z,1007.56
2017-01-31T06:27:05.202Z,1007.52
2017-01-31T06:28:05.179Z,1007.54
2017-01-31T06:29:05.159Z,1007.51
2017-01-31T06:30:05.127Z,1007.52
2017-01-31T06:31:05.108Z,1007.45
2017-01-31T06:32:05.078Z,1007.43
2017-01-31T06:33:05.058Z,1007.4
2017-01-31T06:34:05.033Z,1007.38
2017-01-31T06:35:05.008Z,1007.37
2017-01-31T06:36:04.975Z,1007.35
2017-01-31T06:37:04.956Z,1007.29
2017-01-31T06:38:04.929Z,1007.29
2017-01-31T06:39:04.954Z,1007.29
2017-01-31T06:40:04.876Z,1007.32
2017-01-31T06:41:04.854Z,1007.29
2017-01-31T06:42:04.829Z,1007.3
2017-01-31T06:43:04.811Z,1007.33
2017-01-31T06:44:04.781Z,1007.34
2017-01-31T06:45:04.761Z,1007.39
2017-01-31T06:46:04.737Z,1007.45
2017-01-31T06:47:04.710Z,1007.49
2017-01-31T06:48:04.682Z,1007.53
2017-01-31T06:49:04.710Z,1007.46
2017-01-31T06:50:04.638Z,1007.53
2017-01-31T06:51:04.606Z,1007.56
2017-01-31T06:52:04.585Z,1007.58
2017-01-31T06:53:04.569Z,1007.62
2017-01-31T06:54:04.537Z,1007.68
2017-01-31T06:55:04.568Z,1007.69
2017-01-31T06:56:04.482Z,1007.72
2017-01-31T06:57:04.458Z,1007.73
2017-01-31T06:58:04.431Z,1007.76
2017-01-31T06:59:04.411Z,1007.76
2017-01-31T07:00:04.388Z,1007.75
2017-01-31T07:01:04.390Z,1007.78
2017-01-31T07:02:04.334Z,1007.85
2017-01-31T07:03:04.307Z,1007.81
2017-01-31T07:04:04.280Z,1007.88
2017-01-31T07:05:04.258Z,1007.88
2017-01-31T07:06:04.230Z,1007.88
2017-01-31T07:07:04.209Z,1007.88
2017-01-31T07:08:04.187Z,1007.91
2017-01-31T07:09:04.159Z,1007.94
2017-01-31T07:10:04.133Z,1007.94
2017-01-31T07:11:04.108Z,1007.98
2017-01-31T07:12:04.085Z,1008
2017-01-31T07:13:04.063Z,1007.99
2017-01-31T07:14:04.036Z,1008.05
2017-01-31T07:15:04.008Z,1008.06
2017-01-31T07:16:03.983Z,1008.06
2017-01-31T07:17:03.954Z,1008.08
2017-01-31T07:18:03.935Z,1008.12
2017-01-31T07:19:03.914Z,1008.08
2017-01-31T07:20:03.886Z,1008.08
2017-01-31T07:21:03.862Z,1008.12
2017-01-31T07:22:03.843Z,1008.17
2017-01-31T07:23:03.810Z,1008.15
2017-01-31T07:24:03.783Z,1008.19
2017-01-31T07:25:03.793Z,1008.19
2017-01-31T07:26:03.741Z,1008.2
2017-01-31T07:27:03.710Z,1008.14
2017-01-31T07:28:03.691Z,1008.16
2017-01-31T07:29:03.656Z,1008.16
2017-01-31T07:30:03.637Z,1008.19
2017-01-31T07:31:03.608Z,1008.21
2017-01-31T07:32:03.584Z,1008.22
2017-01-31T07:33:03.560Z,1008.18
2017-01-31T07:34:03.537Z,1008.22
2017-01-31T07:35:03.516Z,1008.17
2017-01-31T07:36:03.485Z,1008.19
2017-01-31T07:37:03.456Z,1008.18
2017-01-31T07:38:03.436Z,1008.21
2017-01-31T07:39:03.410Z,1008.22
2017-01-31T07:40:03.383Z,1008.23
2017-01-31T07:41:03.360Z,1008.26
2017-01-31T07:42:03.343Z,1008.27
2017-01-31T07:43:03.310Z,1008.29
2017-01-31T07:44:03.287Z,1008.31
2017-01-31T07:45:03.271Z,1008.32
2017-01-31T07:46:03.240Z,1008.34
2017-01-31T07:47:03.212Z,1008.33
2017-01-31T07:48:03.187Z,1008.38
2017-01-31T07:49:03.159Z,1008.43
2017-01-31T07:50:03.135Z,1008.48
2017-01-31T07:51:03.114Z,1008.47
2017-01-31T07:52:03.087Z,1008.52
2017-01-31T07:53:03.066Z,1008.49
2017-01-31T07:54:03.037Z,1008.48
2017-01-31T07:55:03.011Z,1008.5
2017-01-31T07:56:02.984Z,1008.49
2017-01-31T07:57:02.964Z,1008.5
2017-01-31T07:58:02.933Z,1008.52
2017-01-31T07:59:02.912Z,1008.53
2017-01-31T08:00:02.883Z,1008.53
2017-01-31T08:01:02.862Z,1008.56
2017-01-31T08:02:02.839Z,1008.55
2017-01-31T08:03:02.812Z,1008.61
2017-01-31T08:04:02.786Z,1008.59
2017-01-31T08:05:02.781Z,1008.64
2017-01-31T08:06:02.738Z,1008.62
2017-01-31T08:07:02.710Z,1008.62
2017-01-31T08:08:02.691Z,1008.62
2017-01-31T08:09:02.662Z,1008.64
2017-01-31T08:10:02.638Z,1008.66
2017-01-31T08:11:02.618Z,1008.64
2017-01-31T08:12:02.636Z,1008.6
2017-01-31T08:13:02.561Z,1008.59
2017-01-31T08:14:02.537Z,1008.57
2017-01-31T08:15:02.517Z,1008.56
2017-01-31T08:16:02.492Z,1008.52
2017-01-31T08:17:02.468Z,1008.51
2017-01-31T08:18:02.436Z,1008.46
2017-01-31T08:19:02.411Z,1008.46
2017-01-31T08:20:02.394Z,1008.47
2017-01-31T08:21:02.365Z,1008.48
2017-01-31T08:22:02.342Z,1008.48
2017-01-31T08:23:02.313Z,1008.46
2017-01-31T08:24:02.286Z,1008.48
2017-01-31T08:25:02.269Z,1008.48
2017-01-31T08:26:02.241Z,1008.5
2017-01-31T08:27:02.216Z,1008.48
2017-01-31T08:28:02.190Z,1008.48
2017-01-31T08:29:02.168Z,1008.47
2017-01-31T08:30:02.141Z,1008.48
2017-01-31T08:31:02.119Z,1008.51
2017-01-31T08:32:02.090Z,1008.45
2017-01-31T08:33:02.066Z,1008.48
2017-01-31T08:34:02.043Z,1008.48
2017-01-31T08:35:02.017Z,1008.48
2017-01-31T08:36:01.989Z,1008.48
2017-01-31T08:37:01.995Z,1008.51
2017-01-31T08:38:01.943Z,1008.52
2017-01-31T08:39:01.916Z,1008.55
2017-01-31T08:40:01.891Z,1008.54
2017-01-31T08:41:01.868Z,1008.48
2017-01-31T08:42:01.843Z,1008.5
2017-01-31T08:43:01.822Z,1008.55
2017-01-31T08:44:01.793Z,1008.51
2017-01-31T08:45:01.769Z,1008.54
2017-01-31T08:46:01.747Z,1008.54
2017-01-31T08:47:01.720Z,1008.56
2017-01-31T08:48:01.696Z,1008.54
2017-01-31T08:49:01.670Z,1008.58
2017-01-31T08:50:01.651Z,1008.57
2017-01-31T08:51:01.622Z,1008.59
2017-01-31T08:52:01.597Z,1008.54
2017-01-31T08:53:01.576Z,1008.58
2017-01-31T08:54:01.554Z,1008.6
2017-01-31T08:55:01.526Z,1008.59
2017-01-31T08:56:01.495Z,1008.6
2017-01-31T08:57:01.472Z,1008.64
2017-01-31T08:58:01.447Z,1008.66
2017-01-31T08:59:01.433Z,1008.66
2017-01-31T09:00:01.397Z,1008.67
2017-01-31T09:01:01.373Z,1008.67
2017-01-31T09:02:01.354Z,1008.7
2017-01-31T09:03:01.324Z,1008.69
2017-01-31T09:04:01.302Z,1008.74
2017-01-31T09:05:01.280Z,1008.73
2017-01-31T09:06:01.255Z,1008.76
2017-01-31T09:07:01.226Z,1008.76
2017-01-31T09:08:01.204Z,1008.79
2017-01-31T09:09:01.176Z,1008.81
2017-01-31T09:10:01.158Z,1008.82
2017-01-31T09:11:01.126Z,1008.83
2017-01-31T09:12:01.104Z,1008.86
2017-01-31T09:13:01.089Z,1008.83
2017-01-31T09:14:01.055Z,1008.89
2017-01-31T09:15:01.028Z,1008.89
2017-01-31T09:16:01.005Z,1008.95
2017-01-31T09:17:00.983Z,1008.91
2017-01-31T09:18:00.954Z,1008.92
2017-01-31T09:19:01.484Z,1008.97
2017-01-31T09:20:00.908Z,1008.95
2017-01-31T09:21:00.882Z,1009
2017-01-31T09:22:00.859Z,1008.99
2017-01-31T09:23:00.831Z,1008.99
2017-01-31T09:24:00.809Z,1009.04
2017-01-31T09:25:00.782Z,1009.04
2017-01-31T09:26:00.770Z,1009.05
2017-01-31T09:27:00.740Z,1009.04
2017-01-31T09:28:00.712Z,1009.01
2017-01-31T09:29:00.688Z,1009.01
2017-01-31T09:30:00.667Z,1009.04
2017-01-31T09:31:00.646Z,1009.07
2017-01-31T09:32:00.616Z,1009.11
2017-01-31T09:33:00.587Z,1009.15
2017-01-31T09:34:00.563Z,1009.15
2017-01-31T09:35:00.537Z,1009.18
2017-01-31T09:36:00.514Z,1009.22
2017-01-31T09:37:00.489Z,1009.23
2017-01-31T09:38:00.465Z,1009.27
2017-01-31T09:39:00.453Z,1009.24
2017-01-31T09:40:00.421Z,1009.29
2017-01-31T09:41:00.390Z,1009.32
2017-01-31T09:42:00.371Z,1009.33
2017-01-31T09:43:00.340Z,1009.34
2017-01-31T09:44:00.319Z,1009.36
2017-01-31T09:45:00.297Z,1009.38
2017-01-31T09:46:00.268Z,1009.38
2017-01-31T09:47:00.245Z,1009.38
2017-01-31T09:48:00.216Z,1009.4
2017-01-31T09:49:00.191Z,1009.45
2017-01-31T09:50:00.173Z,1009.46
2017-01-31T09:51:00.157Z,1009.44
2017-01-31T09:52:00.120Z,1009.52
2017-01-31T09:53:00.102Z,1009.47
2017-01-31T09:54:00.072Z,1009.48
2017-01-31T09:55:00.051Z,1009.5
2017-01-31T09:56:00.021Z,1009.52
2017-01-31T09:57:00.002Z,1009.51
2017-01-31T09:57:59.975Z,1009.55
2017-01-31T09:58:59.955Z,1009.53
2017-01-31T09:59:59.928Z,1009.58
2017-01-31T10:00:59.898Z,1009.6
2017-01-31T10:01:59.878Z,1009.62
2017-01-31T10:02:59.851Z,1009.65
2017-01-31T10:03:59.828Z,1009.66
2017-01-31T10:04:59.801Z,1009.66
2017-01-31T10:05:59.776Z,1009.68
2017-01-31T10:06:59.752Z,1009.67
2017-01-31T10:07:59.736Z,1009.64
2017-01-31T10:08:59.707Z,1009.66
2017-01-31T10:09:59.685Z,1009.62
2017-01-31T10:10:59.652Z,1009.65
2017-01-31T10:11:59.632Z,1009.63
2017-01-31T10:12:59.607Z,1009.62
2017-01-31T10:13:59.633Z,1009.62
2017-01-31T10:14:59.557Z,1009.58
2017-01-31T10:15:59.531Z,1009.6
2017-01-31T10:16:59.510Z,1009.56
2017-01-31T10:17:59.485Z,1009.59
2017-01-31T10:18:59.458Z,1009.61
2017-01-31T10:19:59.432Z,1009.61
2017-01-31T10:20:59.416Z,1009.63
2017-01-31T10:21:59.385Z,1009.59
2017-01-31T10:22:59.366Z,1009.57
2017-01-31T10:23:59.336Z,1009.58
2017-01-31T10:24:59.312Z,1009.54
2017-01-31T10:25:59.285Z,1009.54
2017-01-31T10:26:59.260Z,1009.56
2017-01-31T10:27:59.240Z,1009.55
2017-01-31T10:28:59.223Z,1009.56
2017-01-31T10:29:59.197Z,1009.5
2017-01-31T10:30:59.164Z,1009.55
2017-01-31T10:31:59.140Z,1009.49
2017-01-31T10:32:59.121Z,1009.51
2017-01-31T10:33:59.090Z,1009.47
2017-01-31T10:34:59.065Z,1009.48
2017-01-31T10:35:59.049Z,1009.47
2017-01-31T10:36:59.021Z,1009.45
2017-01-31T10:37:58.997Z,1009.48
2017-01-31T10:38:58.968Z,1009.46
2017-01-31T10:39:58.941Z,1009.47
2017-01-31T10:40:58.923Z,1009.47
2017-01-31T10:41:58.896Z,1009.48
2017-01-31T10:42:58.871Z,1009.49
2017-01-31T10:43:58.860Z,1009.47
2017-01-31T10:44:58.824Z,1009.51
2017-01-31T10:45:58.797Z,1009.49
2017-01-31T10:46:58.772Z,1009.5
2017-01-31T10:47:58.753Z,1009.53
2017-01-31T10:48:58.733Z,1009.55
2017-01-31T10:49:58.702Z,1009.54
2017-01-31T10:50:58.683Z,1009.55
2017-01-31T10:51:58.651Z,1009.57
2017-01-31T10:52:58.625Z,1009.59
2017-01-31T10:53:58.605Z,1009.61
2017-01-31T10:54:58.577Z,1009.59
2017-01-31T10:55:58.557Z,1009.61
2017-01-31T10:56:58.530Z,1009.6
2017-01-31T10:57:58.507Z,1009.62
2017-01-31T10:58:58.489Z,1009.64
2017-01-31T10:59:58.461Z,1009.6
2017-01-31T11:00:58.435Z,1009.59
2017-01-31T11:01:58.415Z,1009.63
2017-01-31T11:02:58.386Z,1009.63
2017-01-31T11:03:58.365Z,1009.64
2017-01-31T11:04:58.343Z,1009.65
2017-01-31T11:05:58.309Z,1009.61
2017-01-31T11:06:58.292Z,1009.63
2017-01-31T11:07:58.263Z,1009.66
2017-01-31T11:08:58.244Z,1009.65
2017-01-31T11:09:58.217Z,1009.6
2017-01-31T11:10:58.192Z,1009.65
2017-01-31T11:11:58.170Z,1009.63
2017-01-31T11:12:58.143Z,1009.65
2017-01-31T11:13:58.121Z,1009.67
2017-01-31T11:14:58.098Z,1009.67
2017-01-31T11:15:58.072Z,1009.66
2017-01-31T11:16:58.045Z,1009.68
2017-01-31T11:17:58.027Z,1009.69
2017-01-31T11:18:58.007Z,1009.71
2017-01-31T11:19:57.975Z,1009.74
2017-01-31T11:20:57.954Z,1009.72
2017-01-31T11:21:57.930Z,1009.73
2017-01-31T11:22:57.898Z,1009.74
2017-01-31T11:23:57.877Z,1009.72
2017-01-31T11:24:57.851Z,1009.78
2017-01-31T11:25:57.826Z,1009.74
2017-01-31T11:26:57.803Z,1009.7
2017-01-31T11:27:57.811Z,1009.74
2017-01-31T11:28:57.753Z,1009.72
2017-01-31T11:29:57.733Z,1009.78
2017-01-31T11:30:57.709Z,1009.78
2017-01-31T11:31:57.684Z,1009.77
2017-01-31T11:32:57.664Z,1009.8
2017-01-31T11:33:57.633Z,1009.82
2017-01-31T11:34:57.607Z,1009.81
2017-01-31T11:35:57.587Z,1009.82
2017-01-31T11:36:57.570Z,1009.87
2017-01-31T11:37:57.535Z,1009.86
2017-01-31T11:38:57.516Z,1009.89
2017-01-31T11:39:57.484Z,1009.9
2017-01-31T11:40:57.466Z,1009.87
2017-01-31T11:41:57.441Z,1009.9
2017-01-31T11:42:57.415Z,1009.93
2017-01-31T11:43:57.390Z,1009.87
2017-01-31T11:44:57.369Z,1009.86
2017-01-31T11:45:57.342Z,1009.88
2017-01-31T11:46:57.320Z,1009.87
2017-01-31T11:47:57.388Z,1009.95
2017-01-31T11:48:57.268Z,1009.97
2017-01-31T11:49:57.248Z,1009.99
2017-01-31T11:50:57.215Z,1010
2017-01-31T11:51:57.199Z,1009.97
2017-01-31T11:52:57.169Z,1010.01
2017-01-31T11:53:57.144Z,1009.97
2017-01-31T11:54:57.121Z,1009.96
2017-01-31T11:55:57.098Z,1010.01
2017-01-31T11:56:57.074Z,1010.02
2017-01-31T11:57:57.058Z,1010.05
2017-01-31T11:58:57.026Z,1010.03
2017-01-31T11:59:57.005Z,1010.06
2017-01-31T12:00:56.981Z,1010.06
2017-01-31T12:01:56.953Z,1010.08
2017-01-31T12:02:56.937Z,1010.08
2017-01-31T12:03:56.902Z,1010.09
2017-01-31T12:04:56.893Z,1010.06
2017-01-31T12:05:56.862Z,1010.09
2017-01-31T12:06:56.830Z,1010.07
2017-01-31T12:07:56.807Z,1010.08